Time;durP1;ratioP1;P1;durP2;ratioP2;P2;SDS_P1;SDS_P2;PMS_P1;PMS_P2;Temp;Humidity;BMP_temperature;BMP_pressure;BME280_temperature;BME280_humidity;BME280_pressure;Samples;Min_cycle;Max_cycle;Signal;HPM_P1;HPM_P2
2022/11/27 00:02:01;;;;;;;19.50;6.60;;;;;;;;;;103588;1304;22477;-88
2022/11/27 00:04:28;;;;;;;15.50;6.30;;;;;;;;;;103618;1304;22433;-87
2022/11/27 00:06:55;;;;;;;20.90;6.40;;;;;;;;;;103568;1304;23331;-86
2022/11/27 00:09:21;;;;;;;15.60;4.90;;;;;;;;;;103667;1304;25326;-85
2022/11/27 00:11:48;;;;;;;15.70;5.60;;;;;;;;;;103668;1304;22473;-87
2022/11/27 00:14:15;;;;;;;14.20;5.40;;;;;;;;;;103572;1304;25461;-84
2022/11/27 00:16:42;;;;;;;15.90;4.20;;;;;;;;;;103798;1306;22592;-83
2022/11/27 00:19:10;;;;;;;11.50;3.60;;;;;;;;;;103537;1307;22463;-82
2022/11/27 00:21:37;;;;;;;14.60;3.60;;;;;;;;;;103743;1307;22465;-86
2022/11/27 00:24:05;;;;;;;9.70;3.20;;;;;;;;;;103572;1301;24310;-83
2022/11/27 00:26:32;;;;;;;11.30;3.70;;;;;;;;;;103566;1307;22464;-89
2022/11/27 00:29:00;;;;;;;13.90;4.00;;;;;;;;;;103560;1304;25487;-88
2022/11/27 00:31:28;;;;;;;14.80;4.30;;;;;;;;;;103617;1300;22571;-83
2022/11/27 00:33:56;;;;;;;12.70;4.90;;;;;;;;;;103562;1304;24234;-86
2022/11/27 00:36:23;;;;;;;13.10;3.90;;;;;;;;;;103565;1304;25335;-83
2022/11/27 00:38:50;;;;;;;13.50;3.90;;;;;;;;;;103596;1303;22460;-82
2022/11/27 00:41:19;;;;;;;12.90;4.00;;;;;;;;;;103553;1307;22471;-86
2022/11/27 00:43:46;;;;;;;15.10;4.50;;;;;;;;;;103786;1305;22477;-84
2022/11/27 00:46:17;;;;;;;13.60;3.90;;;;;;;;;;103579;1304;22944;-83
2022/11/27 00:48:44;;;;;;;13.90;4.50;;;;;;;;;;103694;1304;24256;-82
2022/11/27 00:51:12;;;;;;;13.00;4.40;;;;;;;;;;103429;1304;25415;-81
2022/11/27 00:53:39;;;;;;;14.50;5.50;;;;;;;;;;103633;1304;22417;-85
2022/11/27 00:56:06;;;;;;;13.70;5.10;;;;;;;;;;103601;1303;22470;-83
2022/11/27 00:58:33;;;;;;;14.10;5.00;;;;;;;;;;103558;1304;24175;-83
2022/11/27 01:01:01;;;;;;;14.50;4.90;;;;;;;;;;103519;1304;22517;-87
2022/11/27 01:03:28;;;;;;;14.20;5.00;;;;;;;;;;103556;1306;22463;-82
2022/11/27 01:05:55;;;;;;;15.80;5.70;;;;;;;;;;103367;1306;24241;-84
2022/11/27 01:08:22;;;;;;;16.70;6.20;;;;;;;;;;103644;1306;24266;-81
2022/11/27 01:10:53;;;;;;;18.60;5.90;;;;;;;;;;103387;1304;22476;-87
2022/11/27 01:13:26;;;;;;;21.30;5.80;;;;;;;;;;103545;1297;22537;-88
2022/11/27 01:15:58;;;;;;;16.80;5.70;;;;;;;;;;103456;1304;22535;-85
2022/11/27 01:18:24;;;;;;;18.60;5.50;;;;;;;;;;103425;1304;22425;-84
2022/11/27 01:20:52;;;;;;;16.90;5.80;;;;;;;;;;103570;1306;22507;-83
2022/11/27 01:23:19;;;;;;;17.90;5.80;;;;;;;;;;103765;1299;22720;-86
2022/11/27 01:25:46;;;;;;;19.60;6.60;;;;;;;;;;103527;1307;23889;-81
2022/11/27 01:28:12;;;;;;;19.40;6.20;;;;;;;;;;103769;1304;22499;-84
2022/11/27 01:30:39;;;;;;;17.00;6.60;;;;;;;;;;103517;1304;22465;-88
2022/11/27 01:33:06;;;;;;;22.50;6.50;;;;;;;;;;103583;1304;24427;-88
2022/11/27 01:35:33;;;;;;;17.80;6.50;;;;;;;;;;103578;1304;23201;-81
2022/11/27 01:37:59;;;;;;;18.00;6.70;;;;;;;;;;103800;1304;22457;-86
2022/11/27 01:40:26;;;;;;;17.90;6.90;;;;;;;;;;103562;1306;24218;-84
2022/11/27 01:42:53;;;;;;;18.80;7.30;;;;;;;;;;103326;1304;23837;-82
2022/11/27 01:45:20;;;;;;;19.60;6.70;;;;;;;;;;103475;1300;22465;-82
2022/11/27 01:47:48;;;;;;;20.00;7.60;;;;;;;;;;103587;1306;23817;-85
2022/11/27 01:50:17;;;;;;;18.50;7.00;;;;;;;;;;103222;1304;22473;-81
2022/11/27 01:52:47;;;;;;;18.80;7.20;;;;;;;;;;103362;1304;25301;-82
2022/11/27 01:55:27;;;;;;;22.90;7.90;;;;;;;;;;103451;1301;24395;-83
2022/11/27 01:58:06;;;;;;;20.40;7.70;;;;;;;;;;103520;1304;24321;-83
2022/11/27 02:00:33;;;;;;;16.80;6.70;;;;;;;;;;103450;1307;22535;-82
2022/11/27 02:03:00;;;;;;;18.30;6.80;;;;;;;;;;103325;1304;22472;-86
2022/11/27 02:05:27;;;;;;;21.50;7.40;;;;;;;;;;103566;1306;22457;-85
2022/11/27 02:07:56;;;;;;;19.70;7.10;;;;;;;;;;103544;1306;22497;-84
2022/11/27 02:10:27;;;;;;;19.90;7.10;;;;;;;;;;103336;1304;24214;-81
2022/11/27 02:13:08;;;;;;;14.50;6.40;;;;;;;;;;103574;1304;23024;-83
2022/11/27 02:15:35;;;;;;;17.20;6.50;;;;;;;;;;103485;1304;22477;-82
2022/11/27 02:18:20;;;;;;;19.70;7.30;;;;;;;;;;103862;1298;22465;-87
2022/11/27 02:21:01;;;;;;;16.90;6.80;;;;;;;;;;103783;1305;22500;-82
2022/11/27 02:23:46;;;;;;;21.10;7.30;;;;;;;;;;107106;1305;21972;-81
2022/11/27 02:26:32;;;;;;;16.70;6.90;;;;;;;;;;106970;1307;22920;-81
2022/11/27 02:29:06;;;;;;;17.90;6.10;;;;;;;;;;106874;1305;22101;-81
2022/11/27 02:31:36;;;;;;;18.40;6.30;;;;;;;;;;106886;1304;22081;-81
2022/11/27 02:34:13;;;;;;;20.20;6.60;;;;;;;;;;106939;1302;22747;-81
2022/11/27 02:36:42;;;;;;;21.10;6.70;;;;;;;;;;106995;1307;22036;-81
2022/11/27 02:39:15;;;;;;;17.40;5.30;;;;;;;;;;106932;1304;22038;-80
2022/11/27 02:41:53;;;;;;;19.20;5.30;;;;;;;;;;106892;1306;22309;-80
2022/11/27 02:44:20;;;;;;;18.60;5.90;;;;;;;;;;106895;1302;22716;-81
2022/11/27 02:46:47;;;;;;;16.50;5.60;;;;;;;;;;106859;1306;22092;-81
2022/11/27 02:49:15;;;;;;;17.50;5.80;;;;;;;;;;106866;1307;22626;-81
2022/11/27 02:51:52;;;;;;;15.40;5.10;;;;;;;;;;106896;1306;22079;-81
2022/11/27 02:54:22;;;;;;;17.70;6.30;;;;;;;;;;106946;1304;22322;-81
2022/11/27 02:56:50;;;;;;;18.20;6.10;;;;;;;;;;106924;1298;22060;-81
2022/11/27 02:59:17;;;;;;;18.10;6.10;;;;;;;;;;106929;1304;22038;-81
2022/11/27 03:01:48;;;;;;;16.10;6.00;;;;;;;;;;107112;1299;22049;-81
2022/11/27 03:04:18;;;;;;;15.00;5.70;;;;;;;;;;106746;1306;22073;-81
2022/11/27 03:06:46;;;;;;;16.20;5.70;;;;;;;;;;106814;1306;22367;-81
2022/11/27 03:09:13;;;;;;;15.60;6.20;;;;;;;;;;106793;1306;22117;-81
2022/11/27 03:11:40;;;;;;;15.40;5.60;;;;;;;;;;106923;1306;22002;-81
2022/11/27 03:14:08;;;;;;;14.20;6.00;;;;;;;;;;106933;1305;22085;-81
2022/11/27 03:16:39;;;;;;;12.50;5.50;;;;;;;;;;106775;1306;22067;-81
2022/11/27 03:19:24;;;;;;;15.30;6.30;;;;;;;;;;106777;1306;22100;-81
2022/11/27 03:22:00;;;;;;;14.20;6.00;;;;;;;;;;106877;1306;22989;-81
2022/11/27 03:24:28;;;;;;;15.40;6.10;;;;;;;;;;106669;1303;21716;-81
2022/11/27 03:26:56;;;;;;;20.50;8.50;;;;;;;;;;106725;1306;22111;-81
2022/11/27 03:29:26;;;;;;;16.40;7.20;;;;;;;;;;106861;1306;22088;-81
2022/11/27 03:31:54;;;;;;;22.70;8.70;;;;;;;;;;106720;1306;22918;-81
2022/11/27 03:34:20;;;;;;;18.10;8.50;;;;;;;;;;106916;1306;22834;-80
2022/11/27 03:36:47;;;;;;;17.60;8.00;;;;;;;;;;106788;1306;22103;-81
2022/11/27 03:39:14;;;;;;;17.20;7.70;;;;;;;;;;106924;1299;22183;-80
2022/11/27 03:41:53;;;;;;;19.20;9.20;;;;;;;;;;107151;1299;21933;-80
2022/11/27 03:44:29;;;;;;;15.70;7.40;;;;;;;;;;106764;1302;22044;-81
2022/11/27 03:47:14;;;;;;;18.20;8.20;;;;;;;;;;107284;1281;22698;-81
2022/11/27 03:50:00;;;;;;;17.50;7.90;;;;;;;;;;107058;1297;22052;-81
2022/11/27 03:52:41;;;;;;;17.30;8.40;;;;;;;;;;106869;1307;22976;-81
2022/11/27 03:55:14;;;;;;;17.60;8.60;;;;;;;;;;106955;1301;22039;-81
2022/11/27 03:58:00;;;;;;;17.60;8.70;;;;;;;;;;106920;1303;22111;-81
2022/11/27 04:00:32;;;;;;;15.80;8.10;;;;;;;;;;106706;1307;22055;-81
2022/11/27 04:02:58;;;;;;;16.50;8.80;;;;;;;;;;106698;1306;22280;-81
2022/11/27 04:05:25;;;;;;;23.70;10.90;;;;;;;;;;106769;1307;22071;-81
2022/11/27 04:07:52;;;;;;;21.60;9.10;;;;;;;;;;106911;1301;22115;-81
2022/11/27 04:10:18;;;;;;;30.00;12.90;;;;;;;;;;106888;1307;22870;-80
2022/11/27 04:12:45;;;;;;;29.60;13.20;;;;;;;;;;106879;1307;22333;-81
2022/11/27 04:15:12;;;;;;;27.70;13.50;;;;;;;;;;106746;1306;22713;-80
2022/11/27 04:17:38;;;;;;;32.20;15.10;;;;;;;;;;106765;1303;22063;-81
2022/11/27 04:20:05;;;;;;;25.00;13.30;;;;;;;;;;106788;1306;22036;-82
2022/11/27 04:22:32;;;;;;;26.40;12.80;;;;;;;;;;106995;1299;22825;-81
2022/11/27 04:24:59;;;;;;;23.60;11.70;;;;;;;;;;106852;1307;22076;-80
2022/11/27 04:27:25;;;;;;;23.30;11.70;;;;;;;;;;106943;1307;22043;-81
2022/11/27 04:29:52;;;;;;;22.90;11.50;;;;;;;;;;106891;1306;22640;-81
2022/11/27 04:32:18;;;;;;;21.60;11.80;;;;;;;;;;106905;1307;22062;-81
2022/11/27 04:34:45;;;;;;;25.30;13.00;;;;;;;;;;106867;1301;22047;-81
2022/11/27 04:37:12;;;;;;;31.50;14.10;;;;;;;;;;106990;1306;22553;-81
2022/11/27 04:39:38;;;;;;;27.00;13.70;;;;;;;;;;106752;1307;21901;-81
2022/11/27 04:42:06;;;;;;;29.60;13.20;;;;;;;;;;106923;1307;22102;-81
2022/11/27 04:44:32;;;;;;;27.60;13.20;;;;;;;;;;106755;1306;22099;-81
2022/11/27 04:46:59;;;;;;;18.80;11.00;;;;;;;;;;106865;1301;22885;-81
2022/11/27 04:49:25;;;;;;;23.90;11.40;;;;;;;;;;107155;1298;22047;-80
2022/11/27 04:51:52;;;;;;;23.20;11.50;;;;;;;;;;106807;1301;22753;-80
2022/11/27 04:54:19;;;;;;;28.80;11.50;;;;;;;;;;106855;1306;22174;-81
2022/11/27 04:56:45;;;;;;;21.20;10.70;;;;;;;;;;106768;1306;21951;-81
2022/11/27 04:59:12;;;;;;;24.50;10.40;;;;;;;;;;106736;1306;22020;-81
2022/11/27 05:01:39;;;;;;;21.90;9.90;;;;;;;;;;106765;1307;22057;-81
2022/11/27 05:04:05;;;;;;;22.40;10.00;;;;;;;;;;107110;1297;22465;-80
2022/11/27 05:06:32;;;;;;;23.00;9.90;;;;;;;;;;106870;1300;22077;-80
2022/11/27 05:09:00;;;;;;;22.30;8.20;;;;;;;;;;106776;1306;22035;-80
2022/11/27 05:11:29;;;;;;;17.50;7.50;;;;;;;;;;106788;1306;22060;-80
2022/11/27 05:14:14;;;;;;;19.30;7.30;;;;;;;;;;106756;1306;22110;-80
2022/11/27 05:16:41;;;;;;;18.80;7.30;;;;;;;;;;106950;1299;22074;-80
2022/11/27 05:19:09;;;;;;;17.40;6.60;;;;;;;;;;106690;1306;22217;-80
2022/11/27 05:21:36;;;;;;;18.80;7.90;;;;;;;;;;106668;1310;22113;-80
2022/11/27 05:24:03;;;;;;;17.60;6.90;;;;;;;;;;106739;1306;22086;-80
2022/11/27 05:26:29;;;;;;;18.80;8.20;;;;;;;;;;106752;1307;22385;-80
2022/11/27 05:28:56;;;;;;;16.60;7.10;;;;;;;;;;106851;1307;22708;-80
2022/11/27 05:31:23;;;;;;;15.20;7.70;;;;;;;;;;106706;1302;22092;-80
2022/11/27 05:33:50;;;;;;;15.60;6.70;;;;;;;;;;106870;1307;22689;-80
2022/11/27 05:36:16;;;;;;;19.00;7.20;;;;;;;;;;106663;1306;22110;-80
2022/11/27 05:38:43;;;;;;;16.10;6.50;;;;;;;;;;106664;1304;22786;-80
2022/11/27 05:41:10;;;;;;;16.00;6.70;;;;;;;;;;106794;1306;22081;-81
2022/11/27 05:43:36;;;;;;;15.00;6.80;;;;;;;;;;106770;1306;22101;-80
2022/11/27 05:46:07;;;;;;;19.30;7.20;;;;;;;;;;106889;1305;22082;-81
2022/11/27 05:48:34;;;;;;;15.00;6.50;;;;;;;;;;106899;1307;21930;-80
2022/11/27 05:51:01;;;;;;;15.40;6.70;;;;;;;;;;106745;1295;22062;-80
2022/11/27 05:53:28;;;;;;;17.30;6.30;;;;;;;;;;107127;1299;22033;-80
2022/11/27 05:56:00;;;;;;;16.00;6.40;;;;;;;;;;106782;1306;22069;-80
2022/11/27 05:58:26;;;;;;;17.60;6.40;;;;;;;;;;106734;1306;22077;-80
2022/11/27 06:00:53;;;;;;;16.40;5.60;;;;;;;;;;106911;1300;22100;-80
2022/11/27 06:03:20;;;;;;;18.40;7.20;;;;;;;;;;106786;1306;22035;-80
2022/11/27 06:05:46;;;;;;;18.10;7.40;;;;;;;;;;106742;1306;22065;-80
2022/11/27 06:08:13;;;;;;;21.60;8.50;;;;;;;;;;106737;1306;22044;-80
2022/11/27 06:10:39;;;;;;;19.60;8.20;;;;;;;;;;106674;1309;22672;-80
2022/11/27 06:13:06;;;;;;;18.00;7.90;;;;;;;;;;106855;1308;22092;-80
2022/11/27 06:15:34;;;;;;;19.30;8.10;;;;;;;;;;106626;1309;22729;-80
2022/11/27 06:18:01;;;;;;;19.30;7.10;;;;;;;;;;106711;1304;22056;-80
2022/11/27 06:20:28;;;;;;;19.80;7.80;;;;;;;;;;106720;1309;22056;-80
2022/11/27 06:22:55;;;;;;;16.60;7.30;;;;;;;;;;106780;1309;22826;-80
2022/11/27 06:25:22;;;;;;;16.40;8.40;;;;;;;;;;106785;1298;22053;-80
2022/11/27 06:27:49;;;;;;;22.20;9.60;;;;;;;;;;106695;1309;22029;-80
2022/11/27 06:30:16;;;;;;;23.80;9.70;;;;;;;;;;106683;1309;22099;-80
2022/11/27 06:32:42;;;;;;;20.20;8.50;;;;;;;;;;106713;1309;22077;-80
2022/11/27 06:35:09;;;;;;;20.60;8.70;;;;;;;;;;106716;1310;22119;-80
2022/11/27 06:37:36;;;;;;;18.40;8.20;;;;;;;;;;106686;1301;22083;-80
2022/11/27 06:40:03;;;;;;;19.80;8.50;;;;;;;;;;106707;1309;21948;-80
2022/11/27 06:42:30;;;;;;;17.90;7.50;;;;;;;;;;106722;1309;22048;-80
2022/11/27 06:44:57;;;;;;;20.10;7.60;;;;;;;;;;106650;1309;22691;-80
2022/11/27 06:47:23;;;;;;;17.40;7.30;;;;;;;;;;106684;1309;22704;-80
2022/11/27 06:49:51;;;;;;;17.70;7.30;;;;;;;;;;106763;1309;22110;-80
2022/11/27 06:52:17;;;;;;;16.30;7.60;;;;;;;;;;106690;1309;22056;-80
2022/11/27 06:54:44;;;;;;;17.70;7.80;;;;;;;;;;106754;1308;22090;-80
2022/11/27 06:57:12;;;;;;;17.40;7.90;;;;;;;;;;106618;1309;22091;-80
2022/11/27 06:59:39;;;;;;;17.00;8.10;;;;;;;;;;106651;1309;22048;-80
2022/11/27 07:02:05;;;;;;;18.00;8.10;;;;;;;;;;106787;1308;21963;-80
2022/11/27 07:04:32;;;;;;;18.00;7.60;;;;;;;;;;106772;1309;22697;-80
2022/11/27 07:06:59;;;;;;;16.70;8.20;;;;;;;;;;106957;1287;22075;-80
2022/11/27 07:09:25;;;;;;;15.80;7.50;;;;;;;;;;106718;1303;22063;-80
2022/11/27 07:11:52;;;;;;;15.00;8.20;;;;;;;;;;106707;1309;22079;-80
2022/11/27 07:14:19;;;;;;;16.20;8.30;;;;;;;;;;106660;1309;22084;-80
2022/11/27 07:16:46;;;;;;;19.60;9.70;;;;;;;;;;106640;1298;22080;-81
2022/11/27 07:19:13;;;;;;;21.00;9.10;;;;;;;;;;106670;1308;22040;-81
2022/11/27 07:21:40;;;;;;;21.20;9.30;;;;;;;;;;106649;1310;21953;-80
2022/11/27 07:24:07;;;;;;;18.90;8.60;;;;;;;;;;106668;1309;22768;-81
2022/11/27 07:26:33;;;;;;;19.60;8.70;;;;;;;;;;106690;1309;22126;-81
2022/11/27 07:29:01;;;;;;;14.50;8.50;;;;;;;;;;106701;1309;22068;-80
2022/11/27 07:31:28;;;;;;;23.30;9.80;;;;;;;;;;106695;1309;22557;-81
2022/11/27 07:33:55;;;;;;;18.70;9.60;;;;;;;;;;106694;1310;22500;-81
2022/11/27 07:36:24;;;;;;;19.10;9.60;;;;;;;;;;106697;1310;22137;-80
2022/11/27 07:38:51;;;;;;;20.20;10.20;;;;;;;;;;106669;1309;22162;-80
2022/11/27 07:41:17;;;;;;;26.40;10.90;;;;;;;;;;106653;1307;22034;-80
2022/11/27 07:43:45;;;;;;;21.20;11.10;;;;;;;;;;106749;1300;22114;-80
2022/11/27 07:46:16;;;;;;;19.70;10.10;;;;;;;;;;106825;1302;22018;-80
2022/11/27 07:48:43;;;;;;;17.20;8.30;;;;;;;;;;106657;1310;22731;-80
2022/11/27 07:51:11;;;;;;;32.80;14.70;;;;;;;;;;106657;1310;22053;-80
2022/11/27 07:53:38;;;;;;;40.80;18.20;;;;;;;;;;106648;1310;22045;-80
2022/11/27 07:56:07;;;;;;;35.70;17.10;;;;;;;;;;106685;1308;21652;-80
2022/11/27 07:58:34;;;;;;;33.00;16.60;;;;;;;;;;106854;1308;22122;-80
2022/11/27 08:01:05;;;;;;;32.10;16.50;;;;;;;;;;106754;1308;22090;-79
2022/11/27 08:03:31;;;;;;;31.30;15.50;;;;;;;;;;106683;1309;22063;-79
2022/11/27 08:05:58;;;;;;;29.50;15.50;;;;;;;;;;106660;1309;22096;-79
2022/11/27 08:08:25;;;;;;;28.80;15.30;;;;;;;;;;106714;1306;22126;-80
2022/11/27 08:10:52;;;;;;;28.60;14.30;;;;;;;;;;106741;1310;22046;-79
2022/11/27 08:13:20;;;;;;;28.70;14.70;;;;;;;;;;106620;1310;22066;-79
2022/11/27 08:15:47;;;;;;;29.30;12.80;;;;;;;;;;106985;1303;22051;-80
2022/11/27 08:18:15;;;;;;;23.70;11.80;;;;;;;;;;106627;1309;22061;-80
2022/11/27 08:20:42;;;;;;;26.60;12.10;;;;;;;;;;106736;1309;22157;-80
2022/11/27 08:23:10;;;;;;;26.60;12.00;;;;;;;;;;106614;1312;22220;-80
2022/11/27 08:25:38;;;;;;;26.50;13.10;;;;;;;;;;106648;1312;22719;-80
2022/11/27 08:28:06;;;;;;;26.50;12.30;;;;;;;;;;106704;1308;22373;-80
2022/11/27 08:30:34;;;;;;;26.00;12.10;;;;;;;;;;106608;1311;22097;-80
2022/11/27 08:33:03;;;;;;;22.60;10.50;;;;;;;;;;106594;1310;22075;-81
2022/11/27 08:35:31;;;;;;;25.20;11.10;;;;;;;;;;106601;1310;22000;-82
2022/11/27 08:37:59;;;;;;;28.40;13.50;;;;;;;;;;106655;1310;22712;-82
2022/11/27 08:40:27;;;;;;;23.00;12.10;;;;;;;;;;106657;1310;21977;-81
2022/11/27 08:42:54;;;;;;;26.60;13.90;;;;;;;;;;106597;1312;22846;-81
2022/11/27 08:45:22;;;;;;;25.50;14.10;;;;;;;;;;106689;1313;22112;-82
2022/11/27 08:47:49;;;;;;;29.50;15.10;;;;;;;;;;106600;1312;22061;-81
2022/11/27 08:50:17;;;;;;;28.30;14.40;;;;;;;;;;106649;1312;22147;-81
2022/11/27 08:52:45;;;;;;;22.50;12.10;;;;;;;;;;106791;1306;22681;-81
2022/11/27 08:55:13;;;;;;;23.40;11.20;;;;;;;;;;106665;1312;22048;-81
2022/11/27 08:57:40;;;;;;;23.50;12.00;;;;;;;;;;106630;1309;22100;-81
2022/11/27 09:00:07;;;;;;;29.80;12.50;;;;;;;;;;106654;1311;22674;-81
2022/11/27 09:02:35;;;;;;;31.60;15.40;;;;;;;;;;106627;1310;22073;-81
2022/11/27 09:05:03;;;;;;;33.30;15.30;;;;;;;;;;106596;1310;22188;-81
2022/11/27 09:07:31;;;;;;;36.90;16.00;;;;;;;;;;106703;1310;22013;-81
2022/11/27 09:09:58;;;;;;;26.70;12.90;;;;;;;;;;106641;1308;22038;-81
2022/11/27 09:12:27;;;;;;;24.80;11.00;;;;;;;;;;106762;1299;22125;-81
2022/11/27 09:14:55;;;;;;;23.80;10.20;;;;;;;;;;106612;1304;22063;-81
2022/11/27 09:17:24;;;;;;;20.70;10.20;;;;;;;;;;106638;1310;22837;-81
2022/11/27 09:19:53;;;;;;;22.30;10.50;;;;;;;;;;106654;1312;22690;-81
2022/11/27 09:22:22;;;;;;;21.50;10.50;;;;;;;;;;106620;1313;22090;-81
2022/11/27 09:24:51;;;;;;;21.50;9.80;;;;;;;;;;106684;1310;22597;-81
2022/11/27 09:27:21;;;;;;;20.50;9.40;;;;;;;;;;106640;1313;22675;-81
2022/11/27 09:29:51;;;;;;;20.50;10.50;;;;;;;;;;106675;1313;22371;-81
2022/11/27 09:32:21;;;;;;;19.90;9.50;;;;;;;;;;106621;1312;22093;-81
2022/11/27 09:34:53;;;;;;;22.30;9.60;;;;;;;;;;106605;1312;22450;-81
2022/11/27 09:37:22;;;;;;;20.10;8.30;;;;;;;;;;106499;1313;22723;-81
2022/11/27 09:39:51;;;;;;;20.00;8.00;;;;;;;;;;106597;1312;22071;-81
2022/11/27 09:42:30;;;;;;;19.20;9.00;;;;;;;;;;106571;1313;22072;-81
2022/11/27 09:44:59;;;;;;;29.70;13.70;;;;;;;;;;106669;1310;22640;-81
2022/11/27 09:47:40;;;;;;;47.60;19.20;;;;;;;;;;106564;1313;22823;-81
2022/11/27 09:50:16;;;;;;;28.40;11.00;;;;;;;;;;105468;1310;1490574;-81
2022/11/27 09:53:03;;;;;;;24.80;9.90;;;;;;;;;;106580;1312;22082;-81
2022/11/27 09:55:42;;;;;;;23.80;9.60;;;;;;;;;;106594;1312;22211;-81
2022/11/27 09:58:31;;;;;;;18.40;8.10;;;;;;;;;;106570;1312;22125;-81
2022/11/27 10:01:00;;;;;;;23.00;9.30;;;;;;;;;;106681;1310;22216;-81
2022/11/27 10:03:30;;;;;;;18.80;8.10;;;;;;;;;;106897;1291;22079;-81
2022/11/27 10:06:20;;;;;;;14.90;7.10;;;;;;;;;;106688;1306;22058;-82
2022/11/27 10:09:14;;;;;;;21.40;8.50;;;;;;;;;;106690;1310;22077;-81
2022/11/27 10:12:00;;;;;;;16.90;8.80;;;;;;;;;;106702;1305;22071;-81
2022/11/27 10:21:52;;;;;;;22.40;11.40;;;;;;;;;;100352;1339;547952;-84
2022/11/27 10:24:37;;;;;;;19.70;10.60;;;;;;;;;;102432;1319;25367;-81
2022/11/27 10:27:11;;;;;;;23.10;10.80;;;;;;;;;;102391;1319;22451;-81
2022/11/27 10:29:48;;;;;;;24.00;11.30;;;;;;;;;;102433;1318;22510;-84
2022/11/27 10:32:16;;;;;;;23.90;11.30;;;;;;;;;;102514;1319;22505;-82
2022/11/27 10:34:44;;;;;;;27.20;12.90;;;;;;;;;;101607;1316;1367986;-81
2022/11/27 10:37:19;;;;;;;28.40;12.80;;;;;;;;;;102867;1313;22526;-83
2022/11/27 10:39:48;;;;;;;26.00;11.80;;;;;;;;;;102687;1311;23043;-82
2022/11/27 10:42:35;;;;;;;24.30;11.30;;;;;;;;;;102726;1315;22478;-83
2022/11/27 10:45:20;;;;;;;24.30;11.00;;;;;;;;;;102829;1315;22629;-81
2022/11/27 10:47:47;;;;;;;21.40;10.50;;;;;;;;;;103493;1299;22667;-83
2022/11/27 10:50:14;;;;;;;24.20;11.20;;;;;;;;;;103626;1306;24257;-81
2022/11/27 10:52:54;;;;;;;27.10;12.70;;;;;;;;;;103409;1292;24430;-85
2022/11/27 10:55:27;;;;;;;26.50;12.30;;;;;;;;;;103468;1302;24421;-82
2022/11/27 10:58:05;;;;;;;28.80;13.20;;;;;;;;;;103511;1285;22467;-81
2022/11/27 11:00:31;;;;;;;25.10;12.60;;;;;;;;;;103233;1292;24292;-81
2022/11/27 11:02:59;;;;;;;24.60;12.40;;;;;;;;;;103533;1288;22482;-80
2022/11/27 11:05:26;;;;;;;26.20;11.90;;;;;;;;;;103415;1284;23550;-83
2022/11/27 11:08:05;;;;;;;24.70;11.80;;;;;;;;;;103331;1307;22574;-81
2022/11/27 11:10:31;;;;;;;23.70;11.50;;;;;;;;;;103430;1310;24367;-87
2022/11/27 11:13:05;;;;;;;21.70;11.80;;;;;;;;;;103271;1302;25360;-85
2022/11/27 11:15:31;;;;;;;25.40;12.00;;;;;;;;;;103393;1309;24031;-80
2022/11/27 11:17:57;;;;;;;23.10;12.00;;;;;;;;;;103310;1307;23286;-85
2022/11/27 11:20:24;;;;;;;25.20;11.60;;;;;;;;;;103483;1307;22500;-81
2022/11/27 11:22:50;;;;;;;24.00;11.00;;;;;;;;;;103404;1307;24426;-80
2022/11/27 11:25:17;;;;;;;24.00;10.70;;;;;;;;;;103506;1307;22531;-81
2022/11/27 11:27:44;;;;;;;20.70;10.10;;;;;;;;;;103553;1285;25203;-80
2022/11/27 11:30:19;;;;;;;22.40;11.00;;;;;;;;;;103399;1307;23295;-85
2022/11/27 11:32:48;;;;;;;21.60;10.20;;;;;;;;;;103134;1306;22475;-84
2022/11/27 11:35:33;;;;;;;22.40;10.00;;;;;;;;;;103256;1309;22472;-85
2022/11/27 11:38:00;;;;;;;24.80;11.30;;;;;;;;;;103358;1309;25537;-85
2022/11/27 11:40:33;;;;;;;21.40;11.20;;;;;;;;;;103229;1296;22448;-83
2022/11/27 11:43:01;;;;;;;20.10;9.80;;;;;;;;;;103087;1310;24442;-81
2022/11/27 11:45:32;;;;;;;21.00;10.80;;;;;;;;;;103247;1295;22509;-82
2022/11/27 11:48:00;;;;;;;24.80;11.60;;;;;;;;;;103426;1303;24223;-82
2022/11/27 11:50:36;;;;;;;25.70;11.50;;;;;;;;;;103519;1289;22592;-82
2022/11/27 11:53:05;;;;;;;22.80;12.40;;;;;;;;;;103530;1288;24410;-81
2022/11/27 11:55:40;;;;;;;18.90;9.70;;;;;;;;;;103488;1277;22466;-84
2022/11/27 11:58:12;;;;;;;21.40;10.10;;;;;;;;;;103481;1281;22545;-81
2022/11/27 12:00:44;;;;;;;21.40;10.10;;;;;;;;;;103489;1283;25198;-81
2022/11/27 12:03:51;;;;;;;19.90;9.60;;;;;;;;;;103385;1277;24324;-81
2022/11/27 12:06:32;;;;;;;19.50;9.20;;;;;;;;;;103057;1288;25431;-87
2022/11/27 12:09:01;;;;;;;20.60;10.00;;;;;;;;;;102967;1312;22419;-81
2022/11/27 12:11:33;;;;;;;21.60;9.80;;;;;;;;;;103121;1294;24244;-84
2022/11/27 12:14:05;;;;;;;20.00;8.90;;;;;;;;;;102974;1290;25263;-82
2022/11/27 12:16:34;;;;;;;18.90;9.10;;;;;;;;;;102860;1313;22629;-84
2022/11/27 12:19:09;;;;;;;16.90;8.20;;;;;;;;;;103089;1283;22479;-80
2022/11/27 12:21:46;;;;;;;15.80;8.40;;;;;;;;;;102849;1297;22472;-81
2022/11/27 12:24:27;;;;;;;17.10;8.70;;;;;;;;;;103051;1290;25332;-82
2022/11/27 12:26:59;;;;;;;16.60;8.50;;;;;;;;;;103014;1298;25458;-81
2022/11/27 12:29:37;;;;;;;27.50;9.20;;;;;;;;;;103008;1290;23927;-81
2022/11/27 12:32:13;;;;;;;20.40;9.70;;;;;;;;;;102942;1297;24551;-80
2022/11/27 12:34:39;;;;;;;18.80;9.80;;;;;;;;;;102826;1313;21882;-85
2022/11/27 12:37:22;;;;;;;16.50;8.70;;;;;;;;;;102944;1290;25240;-81
2022/11/27 12:39:55;;;;;;;18.20;9.10;;;;;;;;;;102956;1286;22464;-81
2022/11/27 12:42:32;;;;;;;19.20;10.00;;;;;;;;;;103484;1277;22470;-84
2022/11/27 12:44:58;;;;;;;16.60;8.90;;;;;;;;;;103377;1307;24413;-86
2022/11/27 12:47:24;;;;;;;19.00;9.80;;;;;;;;;;103394;1306;26468;-80
2022/11/27 12:49:56;;;;;;;19.50;9.40;;;;;;;;;;103457;1306;22471;-85
2022/11/27 12:52:24;;;;;;;18.80;9.80;;;;;;;;;;103622;1292;24230;-81
2022/11/27 12:55:09;;;;;;;19.20;9.80;;;;;;;;;;103354;1277;22460;-82
2022/11/27 12:57:38;;;;;;;15.40;9.00;;;;;;;;;;103285;1291;22477;-84
2022/11/27 13:00:05;;;;;;;17.50;9.30;;;;;;;;;;103407;1284;22698;-81
2022/11/27 13:02:41;;;;;;;18.30;9.20;;;;;;;;;;103564;1285;24413;-81
2022/11/27 13:05:13;;;;;;;20.30;9.60;;;;;;;;;;103480;1281;22471;-84
2022/11/27 13:07:58;;;;;;;18.20;11.00;;;;;;;;;;103513;1307;25209;-85
2022/11/27 13:10:36;;;;;;;18.00;10.10;;;;;;;;;;103617;1307;25279;-83
2022/11/27 13:13:10;;;;;;;20.20;9.90;;;;;;;;;;103532;1307;25321;-84
2022/11/27 13:15:55;;;;;;;19.20;9.60;;;;;;;;;;103411;1303;22471;-84
2022/11/27 13:18:33;;;;;;;18.40;10.10;;;;;;;;;;103700;1307;25396;-81
2022/11/27 13:21:01;;;;;;;20.50;9.80;;;;;;;;;;103453;1307;25353;-80
2022/11/27 13:23:31;;;;;;;20.60;9.50;;;;;;;;;;103567;1305;22478;-85
2022/11/27 13:25:58;;;;;;;21.50;10.20;;;;;;;;;;103308;1301;22701;-82
2022/11/27 13:28:30;;;;;;;23.10;13.10;;;;;;;;;;103649;1297;25296;-80
2022/11/27 13:30:58;;;;;;;21.90;11.40;;;;;;;;;;103536;1285;25617;-82
2022/11/27 13:33:33;;;;;;;27.10;13.50;;;;;;;;;;103456;1292;22447;-83
2022/11/27 13:36:02;;;;;;;22.50;12.10;;;;;;;;;;103585;1286;22479;-80
2022/11/27 13:38:32;;;;;;;21.60;11.40;;;;;;;;;;103625;1283;22654;-80
2022/11/27 13:41:04;;;;;;;20.90;10.90;;;;;;;;;;103331;1284;25366;-79
2022/11/27 13:43:41;;;;;;;22.60;11.00;;;;;;;;;;103296;1278;22485;-81
2022/11/27 13:46:24;;;;;;;22.20;10.70;;;;;;;;;;103587;1279;22464;-82
2022/11/27 13:48:50;;;;;;;19.70;9.40;;;;;;;;;;103411;1307;22462;-84
2022/11/27 13:51:24;;;;;;;22.40;9.50;;;;;;;;;;103596;1307;22422;-83
2022/11/27 13:53:51;;;;;;;23.00;10.20;;;;;;;;;;103808;1304;22458;-78
2022/11/27 13:56:26;;;;;;;23.10;9.80;;;;;;;;;;103458;1277;24134;-83
2022/11/27 13:58:53;;;;;;;21.60;10.40;;;;;;;;;;103485;1306;22471;-81
2022/11/27 14:01:20;;;;;;;20.30;10.60;;;;;;;;;;103551;1291;25245;-84
2022/11/27 14:03:47;;;;;;;24.50;10.20;;;;;;;;;;103534;1285;22484;-84
2022/11/27 14:06:25;;;;;;;21.10;10.80;;;;;;;;;;103649;1275;22474;-81
2022/11/27 14:08:52;;;;;;;21.70;10.60;;;;;;;;;;103553;1275;24305;-80
2022/11/27 14:11:28;;;;;;;25.40;11.30;;;;;;;;;;103590;1282;24236;-82
2022/11/27 14:14:24;;;;;;;23.80;11.90;;;;;;;;;;104502;1306;24238;-79
2022/11/27 14:16:56;;;;;;;24.00;12.40;;;;;;;;;;103624;1306;24259;-83
2022/11/27 14:19:35;;;;;;;29.90;14.10;;;;;;;;;;103443;1299;24424;-81
2022/11/27 14:22:12;;;;;;;28.20;14.20;;;;;;;;;;103577;1277;22463;-87
2022/11/27 14:24:42;;;;;;;29.50;15.50;;;;;;;;;;103634;1281;24243;-83
2022/11/27 14:27:22;;;;;;;29.30;14.70;;;;;;;;;;103899;1282;22455;-82
2022/11/27 14:29:48;;;;;;;28.00;14.10;;;;;;;;;;103595;1307;22578;-81
2022/11/27 14:32:15;;;;;;;28.20;13.60;;;;;;;;;;103589;1306;25250;-82
2022/11/27 14:34:42;;;;;;;26.60;12.20;;;;;;;;;;103567;1305;22473;-83
2022/11/27 14:37:22;;;;;;;26.10;13.20;;;;;;;;;;103443;1307;24186;-83